Thu, 02 Feb 2023 19:07:23 UTC | login

Information for RPM qdox-2.0.0-6.2.el8s.noarch.rpm

ID288536
Nameqdox
Version2.0.0
Release6.2.el8s
Epoch
Archnoarch
SummaryExtract class/interface/method definitions from sources
DescriptionQDox is a high speed, small footprint parser for extracting class/interface/method definitions from source files complete with JavaDoc @tags. It is designed to be used by active code generators or documentation tools.
Build Time2021-09-30 16:08:43 GMT
Size303.81 KB
9690b7464bd721ca9649ada7b3ec7062
LicenseASL 2.0
Buildrootvirt8s-ovirt-44-el8s-build-107516-860259
Provides
mvn(com.thoughtworks.qdox:qdox) = 2.0.0
mvn(com.thoughtworks.qdox:qdox:pom:) = 2.0.0
mvn(qdox:qdox) = 2.0.0
mvn(qdox:qdox:pom:) = 2.0.0
osgi(com.thoughtworks.qdox) = 1.6.3
qdox = 2.0.0-6.2.el8s
Obsoletes No Obsoletes
Conflicts No Conflicts
Requires
(java-headless or java-11-headless)
javapackages-filesystem
rpmlib(CompressedFileNames) <= 3.0.4-1
rpmlib(FileDigests) <= 4.6.0-1
rpmlib(PayloadFilesHavePrefix) <= 4.0-1
rpmlib(PayloadIsXz) <= 5.2-1
rpmlib(RichDependencies) <= 4.12.0-1
Recommends No Recommends
Suggests No Suggests
Supplements No Supplements
Enhances No Enhances
Files
1 through 7 of 7
Name ascending sort Size
/usr/share/doc/qdox0.00 B
/usr/share/doc/qdox/README.md20.57 KB
/usr/share/java/qdox.jar317.52 KB
/usr/share/licenses/qdox0.00 B
/usr/share/licenses/qdox/LICENSE.txt589.00 B
/usr/share/maven-metadata/qdox.xml1.22 KB
/usr/share/maven-poms/qdox.pom9.01 KB
Component of
Page:
1 through 50 of 398 >>>
Buildroot descending sort Created State
virt8s-ovirt-45-el8s-build-165512-1002926 2023-01-12 10:38:57 expired
virt8s-ovirt-45-el8s-build-165508-1002924 2023-01-12 10:29:49 expired
virt8s-ovirt-45-el8s-build-165504-1002922 2023-01-12 09:53:27 expired
virt8s-ovirt-45-el8s-build-165500-1000621 2023-01-12 09:42:14 expired
virt8s-ovirt-45-el8s-build-165498-1000621 2023-01-12 09:35:53 expired
virt8s-ovirt-45-el8s-build-165262-997859 2023-01-04 09:35:37 expired
virt8s-ovirt-45-el8s-build-161710-982782 2022-11-16 13:46:05 expired
virt8s-ovirt-45-el8s-build-161708-982073 2022-11-16 12:56:14 expired
virt8s-ovirt-45-el8s-build-158638-967579 2022-10-03 11:43:02 expired
virt8s-ovirt-45-el8s-build-158234-966415 2022-09-29 10:18:44 expired
virt8s-ovirt-45-el8s-build-158233-966415 2022-09-29 10:18:10 expired
virt8s-ovirt-45-el8s-build-158226-966415 2022-09-29 09:17:06 expired
virt8s-ovirt-45-el8s-build-158202-966415 2022-09-29 07:46:54 expired
virt8s-ovirt-45-el8s-build-152422-949867 2022-08-16 12:51:18 expired
virt8s-ovirt-45-el8s-build-151793-945068 2022-08-02 19:19:57 expired
virt8s-ovirt-45-el8s-build-151790-945068 2022-08-02 19:00:31 expired
virt8s-ovirt-45-el8s-build-151788-945017 2022-08-02 16:37:42 expired
virt8s-ovirt-45-el8s-build-151786-945017 2022-08-02 16:30:28 expired
virt8s-ovirt-45-el8s-build-151771-944957 2022-08-02 13:25:05 expired
virt8s-ovirt-45-el8s-build-151769-944957 2022-08-02 13:19:14 expired
virt8s-ovirt-45-el8s-build-151759-944956 2022-08-02 11:03:43 expired
virt8s-ovirt-45-el8s-build-151756-944886 2022-08-02 09:30:57 expired
virt8s-ovirt-45-el8s-build-150849-941816 2022-07-26 10:05:17 expired
virt8s-ovirt-45-el8s-build-150843-941816 2022-07-26 10:00:33 expired
virt8s-ovirt-45-el8s-build-150829-941816 2022-07-26 07:38:10 expired
virt8s-ovirt-45-el8s-build-142167-918384 2022-05-27 08:03:32 expired
virt8s-ovirt-45-el8s-build-141116-917462 2022-05-24 09:34:25 expired
virt8s-ovirt-45-el8s-build-141114-917462 2022-05-24 09:03:28 expired
virt8s-ovirt-45-el8s-build-141112-916158 2022-05-24 08:52:11 expired
virt8s-ovirt-45-el8s-build-141038-916158 2022-05-24 06:30:23 expired
virt8s-ovirt-45-el8s-build-140771-916158 2022-05-23 12:30:47 expired
virt8s-ovirt-45-el8s-build-140767-916158 2022-05-23 12:05:55 expired
virt8s-ovirt-45-el8s-build-140765-916158 2022-05-23 11:54:18 expired
virt8s-ovirt-45-el8s-build-140682-916158 2022-05-23 07:18:02 expired
virt8s-ovirt-45-el8s-build-140680-916158 2022-05-23 07:11:13 expired
virt8s-ovirt-45-el8s-build-140678-916158 2022-05-23 06:46:10 expired
virt8s-ovirt-45-el8s-build-140676-916158 2022-05-23 06:30:45 expired
virt8s-ovirt-45-el8s-build-140674-916158 2022-05-23 06:21:01 expired
virt8s-ovirt-45-el8s-build-140672-916158 2022-05-23 06:08:35 expired
virt8s-ovirt-45-el8s-build-140670-916158 2022-05-23 06:02:37 expired
virt8s-ovirt-45-el8s-build-140668-916158 2022-05-23 05:55:04 expired
virt8s-ovirt-45-el8s-build-140666-916158 2022-05-23 05:18:01 expired
virt8s-ovirt-45-el8s-build-139791-916088 2022-05-20 12:34:06 expired
virt8s-ovirt-45-el8s-build-139789-916057 2022-05-20 12:27:21 expired
virt8s-ovirt-45-el8s-build-139787-916057 2022-05-20 12:21:53 expired
virt8s-ovirt-45-el8s-build-139785-916057 2022-05-20 12:17:32 expired
virt8s-ovirt-45-el8s-build-139783-916057 2022-05-20 12:07:06 expired
virt8s-ovirt-45-el8s-build-139781-916057 2022-05-20 12:00:37 expired
virt8s-ovirt-45-el8s-build-139779-916057 2022-05-20 11:40:16 expired
virt8s-ovirt-45-el8s-build-139777-916057 2022-05-20 11:33:42 expired